sensor_id;sensor_type;location;lat;lon;timestamp;pressure;altitude;pressure_sealevel;temperature;humidity
67052;BME280;53957;47.222;18.670;2023-02-10T00:01:19;102356.97;;;-7.61;100.00
67052;BME280;53957;47.222;18.670;2023-02-10T00:04:24;102368.06;;;-7.59;100.00
67052;BME280;53957;47.222;18.670;2023-02-10T00:07:27;102357.28;;;-7.66;100.00
67052;BME280;53957;47.222;18.670;2023-02-10T00:10:30;102370.28;;;-7.79;100.00
67052;BME280;53957;47.222;18.670;2023-02-10T00:13:35;102367.75;;;-7.67;100.00
67052;BME280;53957;47.222;18.670;2023-02-10T00:16:39;102370.69;;;-7.72;100.00
67052;BME280;53957;47.222;18.670;2023-02-10T00:19:42;102377.25;;;-7.55;100.00
67052;BME280;53957;47.222;18.670;2023-02-10T00:22:46;102378.34;;;-7.70;100.00
67052;BME280;53957;47.222;18.670;2023-02-10T00:25:49;102378.87;;;-7.78;100.00
67052;BME280;53957;47.222;18.670;2023-02-10T00:28:53;102380.84;;;-7.82;100.00
67052;BME280;53957;47.222;18.670;2023-02-10T00:31:56;102382.13;;;-7.87;100.00
67052;BME280;53957;47.222;18.670;2023-02-10T00:34:59;102379.88;;;-8.05;100.00
67052;BME280;53957;47.222;18.670;2023-02-10T00:38:02;102382.16;;;-8.26;100.00
67052;BME280;53957;47.222;18.670;2023-02-10T00:41:08;102389.63;;;-8.09;100.00
67052;BME280;53957;47.222;18.670;2023-02-10T00:44:12;102386.50;;;-8.14;100.00
67052;BME280;53957;47.222;18.670;2023-02-10T00:47:15;102391.91;;;-8.17;100.00
67052;BME280;53957;47.222;18.670;2023-02-10T00:50:18;102393.97;;;-8.09;100.00
67052;BME280;53957;47.222;18.670;2023-02-10T00:53:23;102394.69;;;-8.07;100.00
67052;BME280;53957;47.222;18.670;2023-02-10T00:56:26;102396.37;;;-8.06;100.00
67052;BME280;53957;47.222;18.670;2023-02-10T00:59:30;102386.72;;;-8.30;100.00
67052;BME280;53957;47.222;18.670;2023-02-10T01:02:33;102373.94;;;-8.57;100.00
67052;BME280;53957;47.222;18.670;2023-02-10T01:05:36;102385.34;;;-8.47;100.00
67052;BME280;53957;47.222;18.670;2023-02-10T01:08:39;102386.16;;;-8.59;100.00
67052;BME280;53957;47.222;18.670;2023-02-10T01:11:43;102381.28;;;-8.51;100.00
67052;BME280;53957;47.222;18.670;2023-02-10T01:14:46;102377.12;;;-8.41;100.00
67052;BME280;53957;47.222;18.670;2023-02-10T01:17:49;102374.97;;;-8.72;100.00
67052;BME280;53957;47.222;18.670;2023-02-10T01:20:52;102369.06;;;-8.75;100.00
67052;BME280;53957;47.222;18.670;2023-02-10T01:23:56;102362.75;;;-8.58;100.00
67052;BME280;53957;47.222;18.670;2023-02-10T01:26:59;102363.38;;;-8.54;100.00
67052;BME280;53957;47.222;18.670;2023-02-10T01:30:04;102363.97;;;-8.37;100.00
67052;BME280;53957;47.222;18.670;2023-02-10T01:33:08;102353.59;;;-8.37;100.00
67052;BME280;53957;47.222;18.670;2023-02-10T01:36:15;102345.37;;;-8.55;100.00
67052;BME280;53957;47.222;18.670;2023-02-10T01:39:19;102350.91;;;-8.36;100.00
67052;BME280;53957;47.222;18.670;2023-02-10T01:42:22;102346.72;;;-8.50;100.00
67052;BME280;53957;47.222;18.670;2023-02-10T01:45:29;102349.03;;;-8.08;100.00
67052;BME280;53957;47.222;18.670;2023-02-10T01:48:34;102354.84;;;-8.30;100.00
67052;BME280;53957;47.222;18.670;2023-02-10T01:51:41;102351.09;;;-8.26;100.00
67052;BME280;53957;47.222;18.670;2023-02-10T01:54:53;102348.31;;;-8.23;100.00
67052;BME280;53957;47.222;18.670;2023-02-10T01:57:58;102346.56;;;-8.35;100.00
67052;BME280;53957;47.222;18.670;2023-02-10T02:01:03;102341.41;;;-8.35;100.00
67052;BME280;53957;47.222;18.670;2023-02-10T02:04:06;102345.13;;;-8.39;100.00
67052;BME280;53957;47.222;18.670;2023-02-10T02:07:09;102338.94;;;-8.37;100.00
67052;BME280;53957;47.222;18.670;2023-02-10T02:10:13;102336.72;;;-8.30;100.00
67052;BME280;53957;47.222;18.670;2023-02-10T02:13:58;102341.81;;;-8.42;100.00
67052;BME280;53957;47.222;18.670;2023-02-10T02:34:10;102329.62;;;-8.91;100.00
67052;BME280;53957;47.222;18.670;2023-02-10T02:37:35;102333.38;;;-8.82;100.00
67052;BME280;53957;47.222;18.670;2023-02-10T02:40:40;102332.00;;;-8.88;100.00
67052;BME280;53957;47.222;18.670;2023-02-10T02:43:43;102337.28;;;-8.77;100.00
67052;BME280;53957;47.222;18.670;2023-02-10T02:47:13;102341.97;;;-8.69;100.00
67052;BME280;53957;47.222;18.670;2023-02-10T02:50:40;102334.22;;;-8.69;100.00
67052;BME280;53957;47.222;18.670;2023-02-10T02:54:18;102332.44;;;-8.81;100.00
67052;BME280;53957;47.222;18.670;2023-02-10T02:57:45;102323.75;;;-8.67;100.00
67052;BME280;53957;47.222;18.670;2023-02-10T03:00:53;102325.50;;;-8.81;100.00
67052;BME280;53957;47.222;18.670;2023-02-10T03:03:58;102332.00;;;-8.88;100.00
67052;BME280;53957;47.222;18.670;2023-02-10T03:07:02;102333.66;;;-8.87;100.00
67052;BME280;53957;47.222;18.670;2023-02-10T03:10:06;102339.56;;;-8.85;100.00
67052;BME280;53957;47.222;18.670;2023-02-10T03:13:09;102340.12;;;-9.20;100.00
67052;BME280;53957;47.222;18.670;2023-02-10T03:16:12;102340.91;;;-9.32;100.00
67052;BME280;53957;47.222;18.670;2023-02-10T03:19:15;102341.75;;;-9.32;100.00
67052;BME280;53957;47.222;18.670;2023-02-10T03:22:19;102352.13;;;-9.19;100.00
67052;BME280;53957;47.222;18.670;2023-02-10T03:25:21;102350.06;;;-9.14;100.00
67052;BME280;53957;47.222;18.670;2023-02-10T03:28:25;102345.22;;;-9.06;100.00
67052;BME280;53957;47.222;18.670;2023-02-10T03:31:28;102343.56;;;-9.07;100.00
67052;BME280;53957;47.222;18.670;2023-02-10T03:34:32;102347.19;;;-8.96;100.00
67052;BME280;53957;47.222;18.670;2023-02-10T03:37:35;102343.56;;;-9.07;100.00
67052;BME280;53957;47.222;18.670;2023-02-10T03:40:38;102349.00;;;-8.71;100.00
67052;BME280;53957;47.222;18.670;2023-02-10T03:43:41;102345.88;;;-8.89;100.00
67052;BME280;53957;47.222;18.670;2023-02-10T03:46:45;102339.13;;;-9.04;100.00
67052;BME280;53957;47.222;18.670;2023-02-10T03:49:48;102342.31;;;-9.14;100.00
67052;BME280;53957;47.222;18.670;2023-02-10T03:53:11;102345.91;;;-9.16;100.00
67052;BME280;53957;47.222;18.670;2023-02-10T03:56:14;102339.00;;;-9.16;100.00
67052;BME280;53957;47.222;18.670;2023-02-10T03:59:17;102333.38;;;-9.35;100.00
67052;BME280;53957;47.222;18.670;2023-02-10T04:02:20;102325.13;;;-9.28;100.00
67052;BME280;53957;47.222;18.670;2023-02-10T04:05:23;102331.19;;;-9.42;100.00
67052;BME280;53957;47.222;18.670;2023-02-10T04:08:26;102318.78;;;-9.36;100.00
67052;BME280;53957;47.222;18.670;2023-02-10T04:11:30;102323.34;;;-9.27;100.00
67052;BME280;53957;47.222;18.670;2023-02-10T04:14:32;102323.69;;;-9.19;100.00
67052;BME280;53957;47.222;18.670;2023-02-10T04:17:36;102313.41;;;-9.33;100.00
67052;BME280;53957;47.222;18.670;2023-02-10T04:20:39;102319.75;;;-9.25;100.00
67052;BME280;53957;47.222;18.670;2023-02-10T04:23:42;102308.25;;;-9.33;100.00
67052;BME280;53957;47.222;18.670;2023-02-10T04:26:45;102304.44;;;-9.41;100.00
67052;BME280;53957;47.222;18.670;2023-02-10T04:29:48;102294.78;;;-9.51;100.00
67052;BME280;53957;47.222;18.670;2023-02-10T04:32:51;102296.38;;;-9.63;100.00
67052;BME280;53957;47.222;18.670;2023-02-10T04:35:55;102301.63;;;-9.38;100.00
67052;BME280;53957;47.222;18.670;2023-02-10T04:38:58;102309.59;;;-9.41;100.00
67052;BME280;53957;47.222;18.670;2023-02-10T04:42:02;102317.53;;;-9.44;100.00
67052;BME280;53957;47.222;18.670;2023-02-10T04:45:05;102305.25;;;-9.40;100.00
67052;BME280;53957;47.222;18.670;2023-02-10T04:48:08;102311.78;;;-9.34;100.00
67052;BME280;53957;47.222;18.670;2023-02-10T04:51:12;102303.81;;;-9.31;100.00
67052;BME280;53957;47.222;18.670;2023-02-10T04:54:15;102305.97;;;-9.38;100.00
67052;BME280;53957;47.222;18.670;2023-02-10T04:57:18;102313.09;;;-9.42;100.00
67052;BME280;53957;47.222;18.670;2023-02-10T05:00:21;102308.97;;;-9.44;100.00
67052;BME280;53957;47.222;18.670;2023-02-10T05:03:24;102312.78;;;-9.37;100.00
67052;BME280;53957;47.222;18.670;2023-02-10T05:06:28;102317.59;;;-9.18;100.00
67052;BME280;53957;47.222;18.670;2023-02-10T05:09:31;102327.69;;;-9.41;100.00
67052;BME280;53957;47.222;18.670;2023-02-10T05:12:34;102338.97;;;-9.56;100.00
67052;BME280;53957;47.222;18.670;2023-02-10T05:15:37;102349.19;;;-9.67;100.00
67052;BME280;53957;47.222;18.670;2023-02-10T05:18:40;102352.16;;;-9.74;100.00
67052;BME280;53957;47.222;18.670;2023-02-10T05:21:44;102364.53;;;-9.79;100.00
67052;BME280;53957;47.222;18.670;2023-02-10T05:24:47;102370.00;;;-9.71;100.00
67052;BME280;53957;47.222;18.670;2023-02-10T05:27:52;102371.66;;;-9.55;100.00
67052;BME280;53957;47.222;18.670;2023-02-10T05:30:55;102368.53;;;-9.60;100.00
67052;BME280;53957;47.222;18.670;2023-02-10T05:33:58;102382.72;;;-9.53;100.00
67052;BME280;53957;47.222;18.670;2023-02-10T05:37:01;102379.53;;;-9.85;100.00
67052;BME280;53957;47.222;18.670;2023-02-10T05:40:05;102399.37;;;-9.86;100.00
67052;BME280;53957;47.222;18.670;2023-02-10T05:43:08;102389.34;;;-10.05;100.00
67052;BME280;53957;47.222;18.670;2023-02-10T05:46:12;102375.72;;;-10.36;100.00
67052;BME280;53957;47.222;18.670;2023-02-10T05:49:16;102373.16;;;-10.36;100.00
67052;BME280;53957;47.222;18.670;2023-02-10T05:52:20;102388.12;;;-10.28;100.00
67052;BME280;53957;47.222;18.670;2023-02-10T05:55:23;102381.88;;;-10.24;100.00
67052;BME280;53957;47.222;18.670;2023-02-10T05:58:26;102389.25;;;-10.18;100.00
67052;BME280;53957;47.222;18.670;2023-02-10T06:01:31;102398.31;;;-10.11;100.00
67052;BME280;53957;47.222;18.670;2023-02-10T06:04:35;102401.88;;;-9.99;100.00
67052;BME280;53957;47.222;18.670;2023-02-10T06:07:40;102407.69;;;-9.81;100.00
67052;BME280;53957;47.222;18.670;2023-02-10T06:10:44;102394.41;;;-9.89;100.00
67052;BME280;53957;47.222;18.670;2023-02-10T06:13:46;102389.06;;;-10.15;100.00
67052;BME280;53957;47.222;18.670;2023-02-10T06:17:16;102393.31;;;-10.14;100.00
67052;BME280;53957;47.222;18.670;2023-02-10T06:20:19;102390.84;;;-10.01;100.00
67052;BME280;53957;47.222;18.670;2023-02-10T06:23:25;102403.03;;;-9.61;100.00
67052;BME280;53957;47.222;18.670;2023-02-10T06:26:28;102408.88;;;-9.45;100.00
67052;BME280;53957;47.222;18.670;2023-02-10T06:29:34;102401.50;;;-9.36;100.00
67052;BME280;53957;47.222;18.670;2023-02-10T06:32:57;102403.47;;;-9.27;100.00
67052;BME280;53957;47.222;18.670;2023-02-10T06:36:03;102396.94;;;-9.06;100.00
67052;BME280;53957;47.222;18.670;2023-02-10T06:39:27;102392.41;;;-8.89;100.00
67052;BME280;53957;47.222;18.670;2023-02-10T06:42:38;102390.72;;;-9.03;100.00
67052;BME280;53957;47.222;18.670;2023-02-10T06:46:02;102397.59;;;-8.89;100.00
67052;BME280;53957;47.222;18.670;2023-02-10T06:49:06;102402.00;;;-8.64;100.00
67052;BME280;53957;47.222;18.670;2023-02-10T06:52:11;102394.44;;;-8.54;100.00
67052;BME280;53957;47.222;18.670;2023-02-10T06:55:22;102416.13;;;-8.05;100.00
67052;BME280;53957;47.222;18.670;2023-02-10T06:58:25;102428.06;;;-7.28;100.00
67052;BME280;53957;47.222;18.670;2023-02-10T07:01:30;102438.34;;;-6.20;100.00
67052;BME280;53957;47.222;18.670;2023-02-10T07:04:53;102443.84;;;-5.24;100.00
67052;BME280;53957;47.222;18.670;2023-02-10T07:08:53;102444.56;;;-4.89;100.00
67052;BME280;53957;47.222;18.670;2023-02-10T07:12:36;102451.81;;;-2.11;99.28
67052;BME280;53957;47.222;18.670;2023-02-10T07:16:39;102464.00;;;-2.01;92.81
67052;BME280;53957;47.222;18.670;2023-02-10T13:31:45;102304.56;;;4.07;59.48
67052;BME280;53957;47.222;18.670;2023-02-10T13:34:55;102295.25;;;3.90;58.03
67052;BME280;53957;47.222;18.670;2023-02-10T13:38:15;102291.00;;;3.74;58.85
67052;BME280;53957;47.222;18.670;2023-02-10T13:41:33;102287.81;;;3.78;59.72
67052;BME280;53957;47.222;18.670;2023-02-10T13:48:31;102288.75;;;3.92;58.05
67052;BME280;53957;47.222;18.670;2023-02-10T13:51:37;102272.97;;;3.77;57.90
67052;BME280;53957;47.222;18.670;2023-02-10T13:54:53;102282.34;;;3.80;58.82
67052;BME280;53957;47.222;18.670;2023-02-10T13:58:17;102280.16;;;3.83;59.38
67052;BME280;53957;47.222;18.670;2023-02-10T14:04:51;102296.81;;;3.69;58.03
67052;BME280;53957;47.222;18.670;2023-02-10T14:07:55;102296.91;;;3.76;58.44
67052;BME280;53957;47.222;18.670;2023-02-10T14:14:28;102283.31;;;3.57;58.71
67052;BME280;53957;47.222;18.670;2023-02-10T14:17:34;102286.47;;;3.67;58.93
67052;BME280;53957;47.222;18.670;2023-02-10T14:20:39;102286.09;;;3.55;60.91
67052;BME280;53957;47.222;18.670;2023-02-10T14:24:16;102284.47;;;3.69;60.87
67052;BME280;53957;47.222;18.670;2023-02-10T14:27:30;102274.09;;;3.68;59.73
67052;BME280;53957;47.222;18.670;2023-02-10T14:30:44;102283.75;;;3.61;61.31
67052;BME280;53957;47.222;18.670;2023-02-10T14:33:56;102286.31;;;3.39;60.80
67052;BME280;53957;47.222;18.670;2023-02-10T14:37:13;102286.03;;;3.49;61.69
67052;BME280;53957;47.222;18.670;2023-02-10T14:40:37;102278.59;;;3.37;61.44
67052;BME280;53957;47.222;18.670;2023-02-10T14:44:00;102284.78;;;3.45;62.54
67052;BME280;53957;47.222;18.670;2023-02-10T14:47:03;102274.88;;;3.17;62.94
67052;BME280;53957;47.222;18.670;2023-02-10T14:50:33;102276.12;;;3.06;65.53
67052;BME280;53957;47.222;18.670;2023-02-10T14:53:37;102280.59;;;3.05;65.50
67052;BME280;53957;47.222;18.670;2023-02-10T15:00:00;102282.13;;;3.00;65.58
67052;BME280;53957;47.222;18.670;2023-02-10T15:03:11;102277.03;;;2.83;66.83
67052;BME280;53957;47.222;18.670;2023-02-10T15:06:17;102278.09;;;2.74;66.91
67052;BME280;53957;47.222;18.670;2023-02-10T15:09:33;102279.16;;;2.65;66.94
67052;BME280;53957;47.222;18.670;2023-02-10T15:12:38;102282.72;;;2.57;68.05
67052;BME280;53957;47.222;18.670;2023-02-10T15:15:54;102290.47;;;2.50;68.46
67052;BME280;53957;47.222;18.670;2023-02-10T15:19:00;102291.91;;;2.38;68.40
67052;BME280;53957;47.222;18.670;2023-02-10T15:25:38;102278.03;;;2.21;70.48
67052;BME280;53957;47.222;18.670;2023-02-10T15:28:42;102285.84;;;2.06;73.09
67052;BME280;53957;47.222;18.670;2023-02-10T17:13:06;102333.06;;;-1.18;98.91
67052;BME280;53957;47.222;18.670;2023-02-10T17:16:33;102340.53;;;-1.23;99.46
67052;BME280;53957;47.222;18.670;2023-02-10T17:19:37;102334.09;;;-1.28;100.00
67052;BME280;53957;47.222;18.670;2023-02-10T17:22:41;102340.62;;;-1.33;100.00
67052;BME280;53957;47.222;18.670;2023-02-10T17:25:46;102337.94;;;-1.41;100.00
67052;BME280;53957;47.222;18.670;2023-02-10T17:28:55;102339.13;;;-1.35;100.00
67052;BME280;53957;47.222;18.670;2023-02-10T17:32:18;102333.22;;;-1.37;100.00
67052;BME280;53957;47.222;18.670;2023-02-10T17:35:30;102334.87;;;-1.36;100.00
67052;BME280;53957;47.222;18.670;2023-02-10T17:38:32;102336.59;;;-1.45;100.00
67052;BME280;53957;47.222;18.670;2023-02-10T17:41:48;102340.78;;;-1.52;100.00
67052;BME280;53957;47.222;18.670;2023-02-10T17:44:53;102341.28;;;-1.67;100.00
67052;BME280;53957;47.222;18.670;2023-02-10T17:47:56;102356.63;;;-1.72;100.00
67052;BME280;53957;47.222;18.670;2023-02-10T17:51:08;102344.00;;;-1.76;100.00
67052;BME280;53957;47.222;18.670;2023-02-10T17:54:11;102345.19;;;-1.89;100.00
67052;BME280;53957;47.222;18.670;2023-02-10T17:57:18;102349.47;;;-1.98;100.00
67052;BME280;53957;47.222;18.670;2023-02-10T18:00:22;102345.50;;;-2.02;100.00
67052;BME280;53957;47.222;18.670;2023-02-10T18:03:26;102351.16;;;-2.06;100.00
67052;BME280;53957;47.222;18.670;2023-02-10T18:06:29;102344.75;;;-2.12;100.00
67052;BME280;53957;47.222;18.670;2023-02-10T18:09:32;102352.06;;;-2.16;100.00
67052;BME280;53957;47.222;18.670;2023-02-10T18:12:36;102346.81;;;-2.16;100.00
67052;BME280;53957;47.222;18.670;2023-02-10T18:16:02;102345.72;;;-2.13;100.00
67052;BME280;53957;47.222;18.670;2023-02-10T18:19:06;102348.59;;;-2.16;100.00
67052;BME280;53957;47.222;18.670;2023-02-10T18:22:30;102351.91;;;-2.14;100.00
67052;BME280;53957;47.222;18.670;2023-02-10T18:25:33;102342.56;;;-2.17;100.00
67052;BME280;53957;47.222;18.670;2023-02-10T18:28:37;102353.44;;;-2.21;100.00
67052;BME280;53957;47.222;18.670;2023-02-10T18:32:00;102354.41;;;-2.22;100.00
67052;BME280;53957;47.222;18.670;2023-02-10T18:35:06;102350.44;;;-2.27;100.00
67052;BME280;53957;47.222;18.670;2023-02-10T18:38:09;102353.06;;;-2.27;100.00
67052;BME280;53957;47.222;18.670;2023-02-10T18:41:13;102358.87;;;-2.33;100.00
67052;BME280;53957;47.222;18.670;2023-02-10T18:44:16;102356.41;;;-2.34;100.00
67052;BME280;53957;47.222;18.670;2023-02-10T18:47:20;102354.91;;;-2.37;100.00
67052;BME280;53957;47.222;18.670;2023-02-10T18:50:27;102355.06;;;-2.48;100.00
67052;BME280;53957;47.222;18.670;2023-02-10T18:53:53;102372.37;;;-2.47;100.00
67052;BME280;53957;47.222;18.670;2023-02-10T18:56:57;102354.84;;;-2.65;100.00
67052;BME280;53957;47.222;18.670;2023-02-10T19:00:22;102359.94;;;-2.73;100.00
67052;BME280;53957;47.222;18.670;2023-02-10T19:03:51;102358.19;;;-2.82;100.00
67052;BME280;53957;47.222;18.670;2023-02-10T19:07:19;102353.78;;;-2.92;100.00
67052;BME280;53957;47.222;18.670;2023-02-10T19:10:42;102348.59;;;-3.01;100.00
67052;BME280;53957;47.222;18.670;2023-02-10T19:13:47;102348.72;;;-3.03;100.00
67052;BME280;53957;47.222;18.670;2023-02-10T19:16:50;102350.25;;;-3.10;100.00
67052;BME280;53957;47.222;18.670;2023-02-10T19:19:58;102348.87;;;-3.14;100.00
67052;BME280;53957;47.222;18.670;2023-02-10T19:23:01;102353.41;;;-3.16;100.00
67052;BME280;53957;47.222;18.670;2023-02-10T19:26:05;102350.81;;;-3.16;100.00
67052;BME280;53957;47.222;18.670;2023-02-10T19:29:08;102357.41;;;-3.12;100.00
67052;BME280;53957;47.222;18.670;2023-02-10T19:32:12;102353.69;;;-3.19;100.00
67052;BME280;53957;47.222;18.670;2023-02-10T19:35:35;102353.41;;;-3.16;100.00
67052;BME280;53957;47.222;18.670;2023-02-10T19:38:44;102357.28;;;-3.30;100.00
67052;BME280;53957;47.222;18.670;2023-02-10T19:41:51;102353.28;;;-3.44;100.00
67052;BME280;53957;47.222;18.670;2023-02-10T19:44:56;102357.12;;;-3.48;100.00
67052;BME280;53957;47.222;18.670;2023-02-10T19:48:37;102355.06;;;-3.35;100.00
67052;BME280;53957;47.222;18.670;2023-02-10T19:51:42;102348.87;;;-3.34;100.00
67052;BME280;53957;47.222;18.670;2023-02-10T19:54:50;102356.84;;;-3.45;100.00
67052;BME280;53957;47.222;18.670;2023-02-10T19:57:54;102356.16;;;-3.47;100.00
67052;BME280;53957;47.222;18.670;2023-02-10T20:01:06;102355.59;;;-3.51;100.00
67052;BME280;53957;47.222;18.670;2023-02-10T20:04:50;102362.75;;;-3.63;100.00
67052;BME280;53957;47.222;18.670;2023-02-10T20:07:55;102352.56;;;-3.76;100.00
67052;BME280;53957;47.222;18.670;2023-02-10T20:10:58;102353.41;;;-3.75;100.00
67052;BME280;53957;47.222;18.670;2023-02-10T20:14:02;102362.03;;;-3.75;100.00
67052;BME280;53957;47.222;18.670;2023-02-10T20:17:09;102349.94;;;-3.85;100.00
67052;BME280;53957;47.222;18.670;2023-02-10T20:20:17;102367.50;;;-3.87;100.00
67052;BME280;53957;47.222;18.670;2023-02-10T20:23:21;102353.03;;;-4.01;100.00
67052;BME280;53957;47.222;18.670;2023-02-10T20:26:28;102353.88;;;-4.01;100.00
67052;BME280;53957;47.222;18.670;2023-02-10T20:29:31;102349.06;;;-4.06;100.00
67052;BME280;53957;47.222;18.670;2023-02-10T20:32:36;102356.59;;;-4.12;100.00
67052;BME280;53957;47.222;18.670;2023-02-10T20:35:39;102351.63;;;-4.15;100.00
67052;BME280;53957;47.222;18.670;2023-02-10T20:38:45;102347.66;;;-4.19;100.00
67052;BME280;53957;47.222;18.670;2023-02-10T20:42:09;102343.56;;;-4.12;100.00
67052;BME280;53957;47.222;18.670;2023-02-10T20:45:13;102348.97;;;-3.84;100.00
67052;BME280;53957;47.222;18.670;2023-02-10T20:48:37;102348.87;;;-3.44;100.00
67052;BME280;53957;47.222;18.670;2023-02-10T20:51:40;102348.75;;;-3.62;100.00
67052;BME280;53957;47.222;18.670;2023-02-10T20:54:44;102342.91;;;-4.05;100.00
67052;BME280;53957;47.222;18.670;2023-02-10T20:58:26;102349.97;;;-4.16;100.00
67052;BME280;53957;47.222;18.670;2023-02-10T21:02:11;102348.75;;;-4.22;100.00
67052;BME280;53957;47.222;18.670;2023-02-10T21:06:08;102357.66;;;-4.25;100.00
67052;BME280;53957;47.222;18.670;2023-02-10T21:10:12;102350.31;;;-4.31;100.00
67052;BME280;53957;47.222;18.670;2023-02-10T21:13:55;102351.41;;;-4.33;100.00
67052;BME280;53957;47.222;18.670;2023-02-10T21:17:47;102356.59;;;-4.43;100.00
67052;BME280;53957;47.222;18.670;2023-02-10T21:21:12;102356.84;;;-4.46;100.00
67052;BME280;53957;47.222;18.670;2023-02-10T21:24:16;102352.16;;;-4.53;100.00
67052;BME280;53957;47.222;18.670;2023-02-10T21:27:39;102363.34;;;-4.62;100.00
67052;BME280;53957;47.222;18.670;2023-02-10T21:31:15;102352.31;;;-4.54;100.00
67052;BME280;53957;47.222;18.670;2023-02-10T21:34:40;102351.25;;;-4.73;100.00
67052;BME280;53957;47.222;18.670;2023-02-10T21:38:05;102341.34;;;-4.79;100.00
67052;BME280;53957;47.222;18.670;2023-02-10T21:41:12;102344.91;;;-4.80;100.00
67052;BME280;53957;47.222;18.670;2023-02-10T21:44:41;102338.53;;;-4.87;100.00
67052;BME280;53957;47.222;18.670;2023-02-10T21:48:24;102339.25;;;-4.85;100.00
67052;BME280;53957;47.222;18.670;2023-02-10T21:51:28;102345.66;;;-4.89;100.00
67052;BME280;53957;47.222;18.670;2023-02-10T21:54:41;102351.50;;;-4.97;100.00
67052;BME280;53957;47.222;18.670;2023-02-10T21:58:05;102342.59;;;-4.94;100.00
67052;BME280;53957;47.222;18.670;2023-02-10T22:01:28;102345.22;;;-4.94;100.00
67052;BME280;53957;47.222;18.670;2023-02-10T22:05:12;102354.34;;;-5.00;100.00
67052;BME280;53957;47.222;18.670;2023-02-10T22:08:54;102342.53;;;-5.04;100.00
67052;BME280;53957;47.222;18.670;2023-02-10T22:12:58;102345.50;;;-5.09;100.00
67052;BME280;53957;47.222;18.670;2023-02-10T22:16:01;102343.03;;;-5.10;100.00
67052;BME280;53957;47.222;18.670;2023-02-10T22:19:05;102347.09;;;-5.18;100.00
67052;BME280;53957;47.222;18.670;2023-02-10T22:22:08;102352.34;;;-5.29;100.00
67052;BME280;53957;47.222;18.670;2023-02-10T22:25:13;102355.31;;;-5.22;100.00
67052;BME280;53957;47.222;18.670;2023-02-10T22:28:16;102353.16;;;-5.17;100.00
67052;BME280;53957;47.222;18.670;2023-02-10T22:31:23;102342.22;;;-5.11;100.00
67052;BME280;53957;47.222;18.670;2023-02-10T22:34:48;102354.00;;;-5.28;100.00
67052;BME280;53957;47.222;18.670;2023-02-10T22:38:11;102343.75;;;-5.29;100.00
67052;BME280;53957;47.222;18.670;2023-02-10T22:41:34;102341.25;;;-5.31;100.00
67052;BME280;53957;47.222;18.670;2023-02-10T22:44:39;102344.25;;;-5.36;100.00
67052;BME280;53957;47.222;18.670;2023-02-10T22:47:54;102327.91;;;-5.38;100.00
67052;BME280;53957;47.222;18.670;2023-02-10T22:51:27;102327.97;;;-5.49;100.00
